Aérodrome :
LOGIN :

S'inscrire | Disclaimer

   EN    FR    IT 

 










Légende :    VFR   VFR Marginal   IFR   IFR Intensif   IFR Très Intensif
Visi : 
Plafond : 
>= 8 km
>= 3000ft
5 à 8 km
1000 à 3000 ft
1500m à 5 km
500 à 1000 ft
800 à 1500m
200 à 500 ft
< 800m
< 200 ft
Symboles :   Orages  Brouillard  Fortes neiges  Fortes précipitations  Vent > 20 kt
SIGMETs :   Divers  Orages  Givrage  Turbulence  Onde Orograph.  Cendres Volcan.







- Altitude de l'aérodrome : 18 ft
- Code IATA : AJA
- Voir les cartes d'approche


LFKJ - Ajaccio

DERNIER METAR :
  • 140800Z AUTO 23011KT 9999 BKN023 OVC033 15/11 Q1016 TEMPO 25015G25KT 4000 RA BKN014 OVC050

METARs EXPIRÉS :
  • 140730Z AUTO 24013KT 9999 -RA BKN023 BKN028 OVC033 14/11 Q1016 TEMPO 25015G25KT 4000 RA BKN014 OVC050
  • 140700Z AUTO 23012KT 9999 -RA OVC025 14/11 Q1016 TEMPO 25015G25KT 4000 RA BKN014 OVC050
  • 140630Z AUTO 23015KT 9999 -RA BKN027 OVC032 14/10 Q1015 TEMPO 25015G25KT 4000 RA BKN014 OVC050
  • 140600Z AUTO 23018KT 9999 BKN025 BKN032 OVC043 14/10 Q1016 TEMPO 25015G25KT 4000 RA BKN014 OVC050
  • 140530Z AUTO 23018KT 9999 BKN026 BKN036 OVC043 14/10 Q1016 TEMPO 25015G25KT 4000 RA BKN014 OVC050

TAF TAF LFKJ
Valide du 14 à 03h jusqu'au 15 à 03h UTC


140200Z 1403/1503 25012KT 9999 SCT030 BKN060
TEMPO 1403/1409 25015G25KT 4000 RA BKN014 OVC050
BECMG 1416/1419 VRB05KT
TEMPO 1500/1503 4000 RA BKN014 OVC050
ATIS : +33 4 95 23 59 85
Pas de NOTAMs connus pour ce terrain.
2 SIGMETs publiés pour la FIR Marseille (LFMM) :
 
Turbulence forte
LFMM SIGMET 3 VALID 140600/141000 LFPW
LFMM MARSEILLE FIR/UIR SEV TURB FCST WI N4345 E00730 - N4315 E00945 - N4115 E00945 - N4115 E00845 - N4230 E00830 - N4330 E00645 - N4345 E00730 SFC/FL070 STNR INTSF=
Onde orographique forte
LFMM SIGMET 2 VALID 140600/140900 LFPW
LFMM MARSEILLE FIR/UIR SEV MTW FCST E OF E00900 SFC/FL320 STNR NC=



MET'MAP, la Météo Aéronautique d'un coup d'oeil ! - Copyright ORBIFLY Décembre 2007 - Disclaimer

ORBIFLY MET'MAP TEAM :

Programmation & Développement : Alexandra Zaïnal
Conception & Développement : Baudouin d'Aumeries
Co-Programmation & Développement : Marc-Olivier Méhu
Soutien technique & logistique : Manuel Goepfert

Contact : metmap@orbifly.com




SOURCES & CREDITS :

   NOAA